Nashville, TN

9:10 AM CDT on August 26, 2016 (GMT -0500)
APRSWXNET | | Change Station

Elev 551 ft 36.14 °N, 86.80 °W | Updated 21 minutes ago

Mostly Cloudy
Mostly Cloudy
85 °F
Feels Like 95 °F
N
2
Wind Variable Wind from NNW
Gusts 4.0 mph

Today
High -- | Low -- °F
--% Chance of Precip.
Yesterday
High -- | Low -- °F
Precip. -- in
Pressure 30.12 in
Visibility 10.0 miles
Clouds Mostly Cloudy 25000 ft
Heat Index 95 °F
Dew Point 76 °F
Humidity 75%
Rainfall in
Snow Depth Not available.
6:14 AM 7:22 PM
Waning Crescent, 34% visible
METAR KBNA 261353Z 00000KT 10SM BKN250 28/24 A3014 RMK AO2 SLP198 T02830239
Pressure 30.12 in
Visibility 10.0 miles
Clouds Mostly Cloudy 25000 ft
Heat Index 95 °F
Dew Point 76 °F
Humidity 75%
Rainfall in
Snow Depth Not available.
6:14 AM 7:22 PM
Waning Crescent, 34% visible
METAR KBNA 261353Z 00000KT 10SM BKN250 28/24 A3014 RMK AO2 SLP198 T02830239

10-Day Weather Forecast

Almanac

Astronomy

Aug. 26, 2016 Rise Set
Actual Time
Civil Twilight
Nautical Twilight
Astronomical Twilight
Moon
Length of Visible Light
Length of Day
Tomorrow will be .
, % of the Moon is Illuminated

Today's Extremes

State Highs State Lows

Community

WunderPhotos

Upload Photos

1,935,084 photos uploaded!

WunderBlog® & News

Nearby

Air Quality

  Air Quality AQ Index Pollutant
Not available.

Snow Depth

Station Depth Elevation

Earthquake Activity

City Distance Mag. Time & Date
Minimum magnitude displayed is 2.5.

Coastal Water Temperatures

Place Temperature

Stations

Nearby Weather Stations

Station Location Temp. Windchill Dew Point Humidity Wind Precip. Elev Updated Type
                   

Watches & Warnings

There are currently no watches in effect.